Time;durP1;ratioP1;P1;durP2;ratioP2;P2;SDS_P1;SDS_P2;PMS_P1;PMS_P2;Temp;Humidity;BMP_temperature;BMP_pressure;BME280_temperature;BME280_humidity;BME280_pressure;Samples;Min_cycle;Max_cycle;Signal;HPM_P1;HPM_P2
2023/06/26 00:00:49;;;;;;;5.90;5.80;;;;;;;-141.02;100.00;107971.50;5135387;27;20200;-60
2023/06/26 00:03:16;;;;;;;5.97;5.88;;;;;;;-141.02;100.00;107971.50;5135132;27;20666;-60
2023/06/26 00:05:45;;;;;;;6.40;6.20;;;;;;;-141.02;100.00;107971.50;5135357;27;20277;-60
2023/06/26 00:08:12;;;;;;;6.50;6.30;;;;;;;-141.02;100.00;107971.50;5134802;27;20266;-59
2023/06/26 00:10:39;;;;;;;6.50;6.30;;;;;;;-141.02;100.00;107971.50;5134892;27;20193;-60
2023/06/26 00:13:06;;;;;;;7.00;6.80;;;;;;;-141.02;100.00;107971.50;5135236;27;20224;-60
2023/06/26 00:15:33;;;;;;;7.00;6.80;;;;;;;-141.02;100.00;107971.50;5135176;27;20196;-60
2023/06/26 00:18:00;;;;;;;7.07;6.88;;;;;;;-141.02;100.00;107971.50;5135110;27;20603;-60
2023/06/26 00:20:27;;;;;;;7.38;7.18;;;;;;;-141.02;100.00;107971.50;5134738;27;20231;-60
2023/06/26 00:22:58;;;;;;;7.82;7.63;;;;;;;-141.02;100.00;107971.50;5134681;27;20284;-60
2023/06/26 00:25:25;;;;;;;7.80;7.60;;;;;;;-141.02;100.00;107971.50;5134607;27;20699;-60
2023/06/26 00:27:52;;;;;;;8.20;8.00;;;;;;;-141.02;100.00;107971.50;5134867;27;20727;-61
2023/06/26 00:30:19;;;;;;;8.27;8.07;;;;;;;-141.02;100.00;107971.50;5135264;27;20576;-60
2023/06/26 00:32:46;;;;;;;8.80;8.50;;;;;;;-141.02;100.00;107971.50;5135659;27;20201;-60
2023/06/26 00:35:13;;;;;;;9.00;8.70;;;;;;;-141.02;100.00;107971.50;5134715;27;20196;-60
2023/06/26 00:37:40;;;;;;;9.00;8.70;;;;;;;-141.02;100.00;107971.50;5134412;27;20232;-60
2023/06/26 00:40:10;;;;;;;9.20;8.90;;;;;;;-141.02;100.00;107971.50;5134659;27;20248;-61
2023/06/26 00:42:37;;;;;;;9.40;9.10;;;;;;;-141.02;100.00;107971.50;5134330;27;20193;-60
2023/06/26 00:45:04;;;;;;;9.60;9.30;;;;;;;-141.02;100.00;107971.50;5134494;27;20331;-60
2023/06/26 00:47:32;;;;;;;9.75;9.45;;;;;;;-141.02;100.00;107971.50;5134448;27;20610;-60
2023/06/26 00:49:59;;;;;;;9.70;9.40;;;;;;;-141.02;100.00;107971.50;5134189;27;20188;-60
2023/06/26 00:52:26;;;;;;;9.77;9.48;;;;;;;-141.02;100.00;107971.50;5134304;27;20196;-60
2023/06/26 00:54:53;;;;;;;9.50;9.20;;;;;;;-141.02;100.00;107971.50;5134081;27;20229;-60
2023/06/26 00:57:22;;;;;;;9.00;8.70;;;;;;;-141.02;100.00;107971.50;5133061;27;20238;-60
2023/06/26 00:59:49;;;;;;;8.63;8.32;;;;;;;-141.02;100.00;107971.50;5133979;27;20256;-60
2023/06/26 01:02:19;;;;;;;8.05;7.85;;;;;;;-141.02;100.00;107971.50;5134236;27;20227;-60
2023/06/26 01:04:47;;;;;;;7.20;7.00;;;;;;;-141.02;100.00;107971.50;5134087;27;20235;-60
2023/06/26 01:07:18;;;;;;;6.50;6.30;;;;;;;-141.02;100.00;107971.50;5133834;27;20221;-60
2023/06/26 01:09:45;;;;;;;6.40;6.20;;;;;;;-141.02;100.00;107971.50;5134101;27;20261;-61
2023/06/26 01:12:12;;;;;;;5.70;5.60;;;;;;;-141.02;100.00;107971.50;5133707;27;20216;-60
2023/06/26 01:14:40;;;;;;;5.60;5.50;;;;;;;-141.02;100.00;107971.50;5134002;27;20359;-60
2023/06/26 01:17:11;;;;;;;5.65;5.55;;;;;;;-141.02;100.00;107971.50;5133955;27;20249;-60
2023/06/26 01:19:39;;;;;;;5.55;5.45;;;;;;;-141.02;100.00;107971.50;5133655;27;20185;-60
2023/06/26 01:22:20;;;;;;;5.50;5.40;;;;;;;-141.02;100.00;107971.50;5133524;27;20257;-72
2023/06/26 01:24:57;;;;;;;5.40;5.30;;;;;;;-141.02;100.00;107971.50;5133460;27;20303;-60
2023/06/26 01:27:27;;;;;;;5.30;5.20;;;;;;;-141.02;100.00;107971.50;5133832;27;20184;-60
2023/06/26 01:29:55;;;;;;;5.10;5.00;;;;;;;-141.02;100.00;107971.50;5133701;27;20218;-60
2023/06/26 01:32:24;;;;;;;5.00;4.90;;;;;;;-141.02;100.00;107971.50;5133644;27;20224;-60
2023/06/26 01:34:51;;;;;;;5.05;4.95;;;;;;;-141.02;100.00;107971.50;5133649;27;20265;-60
2023/06/26 01:37:18;;;;;;;4.70;4.60;;;;;;;-141.02;100.00;107971.50;5133247;27;20192;-60
2023/06/26 01:39:45;;;;;;;4.70;4.60;;;;;;;-141.02;100.00;107971.50;5133664;27;20730;-60
2023/06/26 01:42:12;;;;;;;4.43;4.32;;;;;;;-141.02;100.00;107971.50;5133202;27;20734;-60
2023/06/26 01:44:45;;;;;;;4.35;4.25;;;;;;;-141.02;100.00;107971.50;5133197;27;20239;-60
2023/06/26 01:47:17;;;;;;;4.40;4.30;;;;;;;-141.02;100.00;107971.50;5133653;27;20245;-60
2023/06/26 01:49:50;;;;;;;4.60;4.50;;;;;;;-141.02;100.00;107971.50;5133497;27;20188;-60
2023/06/26 01:52:22;;;;;;;4.45;4.35;;;;;;;-141.02;100.00;107971.50;5133042;27;20628;-60
2023/06/26 01:55:01;;;;;;;4.35;4.25;;;;;;;-141.02;100.00;107971.50;5133124;27;20195;-60
2023/06/26 01:57:29;;;;;;;4.30;4.20;;;;;;;-141.02;100.00;107971.50;5133363;27;20262;-60
2023/06/26 01:59:59;;;;;;;4.20;4.10;;;;;;;-141.02;100.00;107971.50;5133299;27;20192;-63
2023/06/26 02:02:26;;;;;;;4.00;3.90;;;;;;;-141.02;100.00;107971.50;5132998;27;20188;-60
2023/06/26 02:04:53;;;;;;;3.90;3.80;;;;;;;-141.02;100.00;107971.50;5133172;27;20232;-60
2023/06/26 02:07:21;;;;;;;4.03;3.92;;;;;;;-141.02;100.00;107971.50;5132886;28;20660;-60
2023/06/26 02:09:48;;;;;;;4.20;4.10;;;;;;;-141.02;100.00;107971.50;5132895;28;20231;-60
2023/06/26 02:12:15;;;;;;;4.40;4.30;;;;;;;-141.02;100.00;107971.50;5133187;28;20224;-60
2023/06/26 02:14:42;;;;;;;4.07;3.97;;;;;;;-141.02;100.00;107971.50;5133097;28;20253;-60
2023/06/26 02:17:10;;;;;;;4.28;4.18;;;;;;;-141.02;100.00;107971.50;5133129;27;20611;-60
2023/06/26 02:19:45;;;;;;;4.30;4.20;;;;;;;-141.02;100.00;107971.50;5133129;27;20236;-60
2023/06/26 02:22:12;;;;;;;4.40;4.30;;;;;;;-141.02;100.00;107971.50;5133127;27;20262;-60
2023/06/26 02:24:38;;;;;;;4.20;4.10;;;;;;;-141.02;100.00;107971.50;5133054;27;20253;-60
2023/06/26 02:27:06;;;;;;;4.43;4.32;;;;;;;-141.02;100.00;107971.50;5132629;28;20227;-60
2023/06/26 02:29:33;;;;;;;4.30;4.20;;;;;;;-141.02;100.00;107971.50;5132705;28;20232;-60
2023/06/26 02:31:59;;;;;;;4.20;4.10;;;;;;;-141.02;100.00;107971.50;5132952;27;20608;-60
2023/06/26 02:34:28;;;;;;;4.18;4.07;;;;;;;-141.02;100.00;107971.50;5132958;28;20224;-72
2023/06/26 02:36:56;;;;;;;4.50;4.40;;;;;;;-141.02;100.00;107971.50;5132981;27;20219;-60
2023/06/26 02:39:23;;;;;;;4.43;4.32;;;;;;;-141.02;100.00;107971.50;5132595;28;20693;-60
2023/06/26 02:41:50;;;;;;;4.53;4.43;;;;;;;-141.02;100.00;107971.50;5132976;27;20257;-60
2023/06/26 02:44:17;;;;;;;4.95;4.85;;;;;;;-141.02;100.00;107971.50;5132530;27;20250;-60
2023/06/26 02:46:44;;;;;;;5.20;5.10;;;;;;;-141.02;100.00;107971.50;5132489;28;20273;-60
2023/06/26 02:49:11;;;;;;;4.78;4.68;;;;;;;-141.02;100.00;107971.50;5133364;27;20249;-60
2023/06/26 02:51:39;;;;;;;4.50;4.40;;;;;;;-141.02;100.00;107971.50;5132895;27;20253;-60
2023/06/26 02:54:06;;;;;;;4.47;4.38;;;;;;;-141.02;100.00;107971.50;5132453;28;20235;-60
2023/06/26 02:56:33;;;;;;;4.50;4.40;;;;;;;-141.02;100.00;107971.50;5132735;27;20243;-60
2023/06/26 02:59:00;;;;;;;4.70;4.60;;;;;;;-141.02;100.00;107971.50;5132732;27;20414;-60
2023/06/26 03:01:27;;;;;;;5.10;5.00;;;;;;;-141.02;100.00;107971.50;5132425;27;20249;-60
2023/06/26 03:03:54;;;;;;;4.90;4.80;;;;;;;-141.02;100.00;107971.50;5132429;28;20239;-67
2023/06/26 03:06:21;;;;;;;4.78;4.68;;;;;;;-141.02;100.00;107971.50;5132623;28;20263;-60
2023/06/26 03:08:49;;;;;;;4.43;4.32;;;;;;;-141.02;100.00;107971.50;5132182;27;20273;-60
2023/06/26 03:11:16;;;;;;;4.50;4.40;;;;;;;-141.02;100.00;107971.50;5132322;28;20192;-60
2023/06/26 03:13:43;;;;;;;4.20;4.10;;;;;;;-141.02;100.00;107971.50;5132280;27;20196;-60
2023/06/26 03:16:10;;;;;;;4.30;4.20;;;;;;;-141.02;100.00;107971.50;5132577;28;20200;-61
2023/06/26 03:18:37;;;;;;;4.10;4.00;;;;;;;-141.02;100.00;107971.50;5132316;27;20193;-60
2023/06/26 03:21:04;;;;;;;4.05;3.95;;;;;;;-141.02;100.00;107971.50;5134699;27;20228;-60
2023/06/26 03:23:31;;;;;;;4.00;3.90;;;;;;;-141.02;100.00;107971.50;5135888;27;20235;-60
2023/06/26 03:26:00;;;;;;;4.32;4.22;;;;;;;-141.02;100.00;107971.50;5135674;27;20277;-61
2023/06/26 03:28:27;;;;;;;4.50;4.40;;;;;;;-141.02;100.00;107971.50;5136112;27;20650;-60
2023/06/26 03:35:09;;;;;;;5.20;5.10;;;;;;;-141.02;100.00;107971.50;5135734;27;20180;-60
2023/06/26 03:40:58;;;;;;;5.60;5.50;;;;;;;-141.02;100.00;107971.50;5135627;27;20196;-60
2023/06/26 03:47:24;;;;;;;6.95;6.75;;;;;;;-141.02;100.00;107971.50;5135457;27;20235;-60
2023/06/26 03:50:30;;;;;;;8.60;8.40;;;;;;;-141.02;100.00;107971.50;5135707;27;20196;-60
2023/06/26 03:53:02;;;;;;;10.00;9.70;;;;;;;-141.02;100.00;107971.50;5135426;27;20196;-61
2023/06/26 03:55:29;;;;;;;11.05;10.65;;;;;;;-141.02;100.00;107971.50;5135221;27;20641;-60
2023/06/26 03:58:13;;;;;;;11.10;10.70;;;;;;;-141.02;100.00;107971.50;5135556;27;20188;-71
2023/06/26 04:00:42;;;;;;;10.50;10.20;;;;;;;-141.02;100.00;107971.50;5135098;27;20245;-60
2023/06/26 04:03:09;;;;;;;9.57;9.27;;;;;;;-141.02;100.00;107971.50;5135158;27;20249;-60
2023/06/26 04:09:29;;;;;;;10.73;10.32;;;;;;;-141.02;100.00;107971.50;5133832;27;20340;-60
2023/06/26 04:12:50;;;;;;;12.32;11.82;;;;;;;-141.02;100.00;107971.50;5135325;27;20192;-60
2023/06/26 04:15:56;;;;;;;15.30;14.50;;;;;;;-141.02;100.00;107971.50;5134976;27;20204;-60
2023/06/26 04:19:10;;;;;;;17.08;16.08;;;;;;;-141.02;100.00;107971.50;5134680;27;20256;-61
2023/06/26 04:21:38;;;;;;;18.70;17.40;;;;;;;-141.02;100.00;107969.53;5135160;27;20191;-60
2023/06/26 04:24:39;;;;;;;19.05;17.67;;;;;;;-141.02;100.00;107719.09;5134985;27;20195;-60
2023/06/26 04:27:13;;;;;;;17.95;16.75;;;;;;;-141.02;100.00;107468.69;5134855;27;20227;-61
2023/06/26 04:29:45;;;;;;;17.08;15.98;;;;;;;-141.02;100.00;107468.69;5134628;27;20189;-60
2023/06/26 04:36:14;;;;;;;16.58;15.57;;;;;;;-141.02;100.00;107969.53;5134626;27;20194;-60
2023/06/26 04:38:41;;;;;;;16.73;15.73;;;;;;;-141.02;100.00;107969.53;5134506;27;20283;-74
2023/06/26 04:41:32;;;;;;;17.55;16.45;;;;;;;-141.02;100.00;107969.53;5134624;27;20200;-60
2023/06/26 04:44:05;;;;;;;18.02;16.83;;;;;;;-141.02;100.00;107468.69;5134515;27;20644;-61
2023/06/26 04:46:32;;;;;;;17.80;16.70;;;;;;;-141.02;100.00;107468.69;5134197;27;20228;-61
2023/06/26 04:50:15;;;;;;;17.30;16.20;;;;;;;-141.02;100.00;107719.09;5134587;27;20192;-60
2023/06/26 05:00:16;;;;;;;16.20;15.30;;;;;;;-141.02;100.00;107969.53;5133953;27;20334;-60
2023/06/26 05:02:43;;;;;;;17.15;16.15;;;;;;;-141.02;100.00;107719.09;5133708;27;20284;-60
2023/06/26 05:05:11;;;;;;;17.10;16.10;;;;;;;-141.02;100.00;107719.09;5133821;27;20207;-60
2023/06/26 05:07:38;;;;;;;16.77;15.88;;;;;;;-141.02;100.00;107719.09;5133558;27;20240;-60
2023/06/26 05:10:06;;;;;;;17.25;16.25;;;;;;;-141.02;100.00;107719.09;5133987;27;20195;-60
2023/06/26 05:12:34;;;;;;;16.55;15.65;;;;;;;-141.02;100.00;107719.09;5133711;27;20199;-60
2023/06/26 05:15:01;;;;;;;16.70;15.80;;;;;;;-141.02;100.00;107969.53;5133698;27;20189;-60
2023/06/26 05:17:30;;;;;;;16.60;15.70;;;;;;;-141.02;100.00;107971.50;5133791;27;20209;-60
2023/06/26 05:19:57;;;;;;;17.48;16.48;;;;;;;-141.02;100.00;107969.53;5133745;27;20257;-65
2023/06/26 05:22:24;;;;;;;18.83;17.63;;;;;;;-141.02;100.00;107468.69;5133661;27;20246;-61
2023/06/26 05:24:55;;;;;;;18.33;17.13;;;;;;;-141.02;100.00;107969.53;5133703;27;20191;-61
2023/06/26 05:27:23;;;;;;;19.25;17.95;;;;;;;-141.02;100.00;107468.69;5133658;27;20264;-60
2023/06/26 05:29:51;;;;;;;19.00;17.60;;;;;;;-141.02;100.00;106967.91;5133749;27;20195;-60
2023/06/26 05:32:18;;;;;;;18.73;17.42;;;;;;;-141.02;100.00;106967.91;5133522;27;20262;-60
2023/06/26 05:34:49;;;;;;;18.55;17.25;;;;;;;-141.02;100.00;106717.56;5133290;27;20612;-60
2023/06/26 05:37:21;;;;;;;19.70;18.30;;;;;;;-141.02;100.00;106717.56;5133219;27;20195;-60
2023/06/26 05:39:48;;;;;;;18.35;17.05;;;;;;;-141.02;100.00;106467.22;5133367;27;20696;-60
2023/06/26 05:42:17;;;;;;;19.30;17.90;;;;;;;-141.02;100.00;106717.56;5133225;27;20196;-60
2023/06/26 05:44:44;;;;;;;19.40;18.00;;;;;;;-141.02;100.00;106717.56;5133196;27;20231;-60
2023/06/26 05:47:11;;;;;;;18.63;17.23;;;;;;;-141.02;100.00;106467.22;5133395;27;20219;-60
2023/06/26 05:49:38;;;;;;;19.30;17.80;;;;;;;-141.02;100.00;106467.22;5132971;27;20193;-60
2023/06/26 05:52:08;;;;;;;18.40;17.00;;;;;;;-141.02;100.00;105966.59;5133502;27;20192;-60
2023/06/26 05:54:35;;;;;;;17.63;16.42;;;;;;;-141.02;100.00;106216.91;5133537;27;20269;-60
2023/06/26 05:57:04;;;;;;;18.05;16.85;;;;;;;-141.02;100.00;106717.56;5133019;27;20658;-60
2023/06/26 05:59:32;;;;;;;18.20;16.92;;;;;;;-141.02;100.00;106717.56;5133178;27;20201;-60
2023/06/26 06:01:59;;;;;;;18.27;16.98;;;;;;;-141.02;100.00;106717.56;5133258;27;20649;-60
2023/06/26 06:04:26;;;;;;;18.42;17.13;;;;;;;-141.02;100.00;106467.22;5132687;27;20192;-61
2023/06/26 06:06:53;;;;;;;18.08;16.77;;;;;;;-141.02;100.00;106717.56;5132943;28;20228;-60
2023/06/26 06:09:22;;;;;;;18.63;17.25;;;;;;;-141.02;100.00;106467.22;5132880;28;20223;-62
2023/06/26 06:11:49;;;;;;;18.35;16.98;;;;;;;-141.02;100.00;106467.22;5133082;27;20621;-75
2023/06/26 06:14:16;;;;;;;18.55;17.15;;;;;;;-141.02;100.00;105966.59;5132765;28;20189;-61
2023/06/26 06:16:43;;;;;;;18.30;16.92;;;;;;;-141.02;100.00;105966.59;5133004;28;20627;-61
2023/06/26 06:19:12;;;;;;;18.95;17.55;;;;;;;-141.02;100.00;105466.03;5133100;28;20227;-61
2023/06/26 06:21:39;;;;;;;18.50;17.20;;;;;;;-141.02;100.00;105716.31;5132686;28;20192;-60
2023/06/26 06:24:07;;;;;;;18.20;16.92;;;;;;;-141.02;100.00;105966.59;5133302;27;20245;-60
2023/06/26 06:26:36;;;;;;;17.58;16.38;;;;;;;-141.02;100.00;105966.59;5132514;28;20630;-60
2023/06/26 06:29:03;;;;;;;17.83;16.67;;;;;;;-141.02;100.00;106216.91;5132970;27;20219;-60
2023/06/26 06:31:30;;;;;;;17.65;16.55;;;;;;;-141.02;100.00;106967.91;5132597;28;20200;-60
2023/06/26 06:33:57;;;;;;;17.67;16.58;;;;;;;-141.02;100.00;106967.91;5132796;28;20650;-60
2023/06/26 06:36:24;;;;;;;18.13;16.92;;;;;;;-141.02;100.00;106967.91;5132592;28;20235;-60
2023/06/26 06:38:51;;;;;;;18.17;16.98;;;;;;;-141.02;100.00;106967.91;5132829;27;20273;-60
2023/06/26 06:41:18;;;;;;;18.58;17.23;;;;;;;-141.02;100.00;106216.91;5132408;28;20192;-60
2023/06/26 06:43:46;;;;;;;18.83;17.42;;;;;;;-141.02;100.00;105966.59;5132619;27;20192;-61
2023/06/26 06:46:13;;;;;;;18.50;17.10;;;;;;;-141.02;100.00;105466.03;5132292;28;20220;-60
2023/06/26 06:48:40;;;;;;;19.38;17.98;;;;;;;-141.02;100.00;105716.31;5132776;27;20241;-61
2023/06/26 06:51:07;;;;;;;19.48;17.98;;;;;;;-141.02;100.00;105215.78;5132280;27;20626;-60
2023/06/26 06:53:34;;;;;;;20.95;19.35;;;;;;;-141.02;100.00;105215.78;5132649;28;20200;-61
2023/06/26 06:56:02;;;;;;;21.00;19.40;;;;;;;-141.02;100.00;104715.34;5134677;27;20727;-60
2023/06/26 06:58:29;;;;;;;23.05;21.15;;;;;;;-141.02;100.00;103214.44;5136639;27;20192;-61
2023/06/26 07:00:57;;;;;;;22.65;20.85;;;;;;;-141.02;100.00;102464.22;5136324;27;20249;-61
2023/06/26 07:03:24;;;;;;;21.00;19.40;;;;;;;-141.02;100.00;103964.81;5136111;27;20640;-60
2023/06/26 07:05:51;;;;;;;22.15;20.35;;;;;;;-141.02;100.00;103964.81;5135975;27;20193;-60
2023/06/26 07:08:18;;;;;;;22.50;20.45;;;;;;;-141.02;100.00;101964.16;5136038;27;20258;-61
2023/06/26 07:10:45;;;;;;;25.73;23.33;;;;;;;-141.02;98.90;101214.22;5136337;27;20257;-61
2023/06/26 07:13:12;;;;;;;24.40;22.10;;;;;;;-141.02;100.00;101464.19;5136139;27;20196;-61
2023/06/26 07:15:39;;;;;;;23.48;21.27;;;;;;;-141.02;100.00;101464.19;5135881;27;20192;-61
2023/06/26 07:18:08;;;;;;;22.95;20.85;;;;;;;-141.02;100.00;101464.19;5135893;27;20253;-60
2023/06/26 07:20:35;;;;;;;23.08;20.98;;;;;;;-141.02;100.00;101214.22;5136158;27;20243;-61
2023/06/26 07:23:02;;;;;;;22.17;20.17;;;;;;;-141.02;100.00;102214.16;5135897;27;20204;-60
2023/06/26 07:25:29;;;;;;;23.40;21.10;;;;;;;-141.02;100.00;101714.16;5135854;27;20662;-61
2023/06/26 07:27:56;;;;;;;22.05;19.80;;;;;;;-141.02;100.00;102214.16;5135884;27;20636;-61
2023/06/26 07:30:23;;;;;;;22.60;20.30;;;;;;;-141.02;98.20;101714.16;5135692;27;20646;-60
2023/06/26 07:32:51;;;;;;;23.40;21.10;;;;;;;-141.02;99.73;100464.44;5135859;27;20219;-60
2023/06/26 07:35:19;;;;;;;23.33;21.02;;;;;;;-141.02;99.40;99714.81;5135618;27;20237;-60
2023/06/26 07:37:46;;;;;;;23.30;21.10;;;;;;;-141.02;99.70;99464.97;5135590;27;20707;-60
2023/06/26 07:40:13;;;;;;;22.08;20.00;;;;;;;-141.02;100.00;99964.66;5135441;27;20204;-60
2023/06/26 07:42:40;;;;;;;22.33;20.33;;;;;;;-141.02;100.00;99714.81;5135779;27;20231;-60
2023/06/26 07:45:10;;;;;;;22.88;20.77;;;;;;;-141.02;100.00;99215.16;5135694;27;20261;-60
2023/06/26 07:47:37;;;;;;;22.50;20.40;;;;;;;-141.02;100.00;99464.97;5135319;27;20231;-60
2023/06/26 07:50:05;;;;;;;22.58;20.48;;;;;;;-141.02;100.00;99964.66;5135278;27;20709;-60
2023/06/26 07:52:34;;;;;;;21.05;19.05;;;;;;;-141.02;100.00;99215.16;5136005;27;20287;-60
2023/06/26 07:55:05;;;;;;;22.35;20.20;;;;;;;-141.02;100.00;99464.97;5135841;27;20257;-61
2023/06/26 07:57:32;;;;;;;22.92;20.73;;;;;;;-141.02;100.00;99714.81;5135252;27;20191;-60
2023/06/26 07:59:59;;;;;;;22.98;20.77;;;;;;;-141.02;100.00;99964.66;5135627;27;20196;-62
2023/06/26 08:02:26;;;;;;;21.63;19.42;;;;;;;-141.02;99.57;100464.44;5135344;27;20215;-60
2023/06/26 08:04:53;;;;;;;22.10;19.90;;;;;;;-141.02;99.84;101214.22;5134949;27;20666;-60
2023/06/26 08:07:20;;;;;;;22.95;20.55;;;;;;;-141.02;93.22;99964.66;5134458;27;20246;-60
2023/06/26 08:09:48;;;;;;;23.20;20.80;;;;;;;-141.02;93.87;98965.34;5134912;27;20185;-61
2023/06/26 08:12:15;;;;;;;22.98;20.58;;;;;;;-141.02;92.56;98216.03;5134849;27;20257;-60
2023/06/26 08:14:42;;;;;;;21.90;19.60;;;;;;;-141.02;95.18;97716.59;5134993;27;20248;-61
2023/06/26 08:17:09;;;;;;;23.15;20.85;;;;;;;-141.02;96.61;97966.31;5134799;27;20193;-60
2023/06/26 08:19:36;;;;;;;22.67;20.48;;;;;;;-141.02;99.93;98965.34;5134743;27;20188;-60
2023/06/26 08:22:04;;;;;;;23.58;21.20;;;;;;;-141.02;94.71;97716.59;5134875;27;20269;-60
2023/06/26 08:24:34;;;;;;;22.42;20.23;;;;;;;-141.02;93.59;98216.03;5134780;27;20203;-60
2023/06/26 08:27:03;;;;;;;25.48;22.88;;;;;;;-141.02;93.20;98965.34;5134738;27;20641;-60
2023/06/26 08:29:30;;;;;;;25.20;22.60;;;;;;;-141.02;92.17;97716.59;5134507;27;20196;-60
2023/06/26 08:31:57;;;;;;;23.83;21.42;;;;;;;-141.02;93.14;98216.03;5134430;27;20249;-60
2023/06/26 08:34:26;;;;;;;23.08;20.67;;;;;;;-141.02;94.13;97966.31;5134775;27;20563;-60
2023/06/26 08:36:53;;;;;;;21.65;19.45;;;;;;;-141.02;96.69;99464.97;5134746;27;20196;-66
2023/06/26 08:39:20;;;;;;;23.30;20.90;;;;;;;-141.02;95.45;98965.34;5134362;27;20191;-60
2023/06/26 08:41:47;;;;;;;25.42;22.75;;;;;;;-141.02;86.12;98965.34;5134605;27;20193;-60
2023/06/26 08:44:15;;;;;;;26.73;23.92;;;;;;;-141.02;84.99;99215.16;5133938;27;20192;-60
2023/06/26 08:46:43;;;;;;;26.77;23.98;;;;;;;-141.02;85.01;98465.78;5134189;27;20228;-60
2023/06/26 08:49:18;;;;;;;25.80;22.90;;;;;;;-141.02;86.66;97466.91;5134531;27;20220;-60
2023/06/26 08:51:53;;;;;;;26.38;23.58;;;;;;;-141.02;86.23;96717.94;5133975;27;20661;-61
2023/06/26 08:54:28;;;;;;;27.10;24.30;;;;;;;-141.02;84.74;96468.31;5134132;27;20196;-60
2023/06/26 08:56:57;;;;;;;26.67;23.90;;;;;;;-141.02;87.97;97966.31;5134447;27;20196;-60
2023/06/26 08:59:26;;;;;;;25.02;22.33;;;;;;;-141.02;86.12;96717.94;5134312;27;20224;-80
2023/06/26 09:01:53;;;;;;;25.25;22.65;;;;;;;-141.02;88.17;96967.56;5133803;27;20196;-60
2023/06/26 09:04:20;;;;;;;25.90;23.20;;;;;;;-141.02;86.31;96717.94;5134188;27;20192;-60
2023/06/26 09:06:47;;;;;;;27.35;24.55;;;;;;;-141.02;83.70;97966.31;5133715;27;20697;-61
2023/06/26 09:09:14;;;;;;;29.25;26.25;;;;;;;-141.02;79.45;97217.22;5133863;27;20196;-60
2023/06/26 09:11:41;;;;;;;27.77;24.88;;;;;;;-141.02;79.84;96717.94;5133857;27;20215;-60
2023/06/26 09:14:10;;;;;;;28.30;25.30;;;;;;;-141.02;82.29;95969.13;5134103;27;20246;-60
2023/06/26 09:16:42;;;;;;;28.15;25.25;;;;;;;-141.02;86.29;95719.53;5133985;27;20196;-59
2023/06/26 09:19:13;;;;;;;26.73;23.92;;;;;;;-141.02;87.10;94721.44;5132923;27;20189;-60
2023/06/26 09:21:41;;;;;;;26.85;24.05;;;;;;;-141.02;86.62;94471.97;5132362;27;20228;-61
2023/06/26 09:24:09;;;;;;;25.70;23.00;;;;;;;-141.02;87.50;94471.97;5133641;27;20669;-60
2023/06/26 09:26:38;;;;;;;24.85;22.25;;;;;;;-141.02;89.27;95220.47;5133499;27;20287;-60
2023/06/26 09:29:05;;;;;;;25.42;22.83;;;;;;;-141.02;87.29;95220.47;5133461;27;20246;-60
2023/06/26 09:31:33;;;;;;;26.30;23.60;;;;;;;-141.02;87.92;96717.94;5133498;27;20740;-60
2023/06/26 09:34:02;;;;;;;26.65;23.85;;;;;;;-141.02;85.36;96717.94;5133362;27;20313;-68
2023/06/26 09:36:32;;;;;;;27.60;24.70;;;;;;;-141.02;81.43;95719.53;5133722;27;20192;-59
2023/06/26 09:39:00;;;;;;;27.63;24.73;;;;;;;-141.02;83.61;97716.59;5133637;27;20196;-60
2023/06/26 09:41:28;;;;;;;27.95;24.95;;;;;;;-141.02;81.55;96967.56;5133353;27;20698;-60
2023/06/26 09:43:55;;;;;;;29.52;26.40;;;;;;;-141.02;79.79;96967.56;5133574;27;20199;-60
2023/06/26 09:46:27;;;;;;;29.95;26.75;;;;;;;-141.02;76.07;95470.00;5132925;27;20803;-60
2023/06/26 09:49:02;;;;;;;30.00;26.80;;;;;;;-141.02;82.99;94970.94;5133188;27;20270;-60
2023/06/26 09:51:31;;;;;;;29.63;26.52;;;;;;;-141.02;78.42;93973.06;5133191;27;20180;-60
2023/06/26 09:53:58;;;;;;;28.02;25.10;;;;;;;-141.02;83.22;93973.06;5133126;27;20193;-60
2023/06/26 09:56:25;;;;;;;26.10;23.40;;;;;;;-141.02;85.96;95470.00;5133028;27;20188;-60
2023/06/26 09:58:52;;;;;;;25.60;22.90;;;;;;;-141.02;88.86;96218.69;5133352;27;20249;-60
2023/06/26 10:01:20;;;;;;;25.10;22.40;;;;;;;-141.02;84.97;94471.97;5132979;27;20357;-60
2023/06/26 10:03:47;;;;;;;26.60;23.80;;;;;;;-141.02;86.07;94222.50;5133002;27;20252;-60
2023/06/26 10:06:19;;;;;;;26.73;24.02;;;;;;;-141.02;87.65;93973.06;5133318;27;20249;-60
2023/06/26 10:08:46;;;;;;;25.67;23.08;;;;;;;-141.02;89.85;93723.63;5132773;27;20296;-60
2023/06/26 10:11:20;;;;;;;25.70;23.10;;;;;;;-141.02;92.21;93973.06;5133304;27;20189;-69
2023/06/26 10:13:50;;;;;;;25.08;22.58;;;;;;;-141.02;92.95;93723.63;5133202;27;20185;-59
2023/06/26 10:16:23;;;;;;;23.55;21.35;;;;;;;-141.02;95.61;94970.94;5133231;28;20263;-60
2023/06/26 10:18:54;;;;;;;24.38;21.98;;;;;;;-141.02;94.19;94970.94;5131994;28;20216;-60
2023/06/26 10:21:24;;;;;;;24.25;21.75;;;;;;;-141.02;95.45;95220.47;5132768;28;20238;-60
2023/06/26 10:23:55;;;;;;;24.25;21.75;;;;;;;-141.02;94.06;94970.94;5133101;27;20184;-60
2023/06/26 10:26:23;;;;;;;23.73;21.23;;;;;;;-141.02;93.50;94471.97;5132840;27;20242;-59
2023/06/26 10:28:53;;;;;;;24.77;22.27;;;;;;;-141.02;93.03;94721.44;5132939;27;20315;-59
2023/06/26 10:31:22;;;;;;;24.92;22.42;;;;;;;-141.02;95.10;95470.00;5137249;27;20249;-60
2023/06/26 10:33:50;;;;;;;27.50;24.70;;;;;;;-141.02;88.89;94222.50;5137192;27;20192;-60
2023/06/26 10:36:18;;;;;;;27.33;24.63;;;;;;;-141.02;90.48;94471.97;5137137;27;20243;-60
2023/06/26 10:38:54;;;;;;;28.30;25.40;;;;;;;-141.02;89.65;93973.06;5137169;27;20705;-59
2023/06/26 10:41:23;;;;;;;28.75;25.85;;;;;;;-141.02;88.32;93474.22;5136763;27;20192;-60
2023/06/26 10:43:51;;;;;;;25.55;22.85;;;;;;;-141.02;89.10;94222.50;5136764;27;20198;-60
2023/06/26 10:46:20;;;;;;;25.90;23.20;;;;;;;-141.02;86.73;95470.00;5136956;27;20219;-60
2023/06/26 10:49:00;;;;;;;26.52;23.75;;;;;;;-141.02;83.96;96218.69;5136539;27;20724;-60
2023/06/26 10:51:28;;;;;;;26.80;24.10;;;;;;;-141.02;82.28;95470.00;5136487;27;20261;-60
2023/06/26 10:53:57;;;;;;;28.70;25.73;;;;;;;-141.02;81.33;95220.47;5136898;27;20189;-59
2023/06/26 10:56:42;;;;;;;27.50;24.60;;;;;;;-141.02;81.27;95969.13;5136408;27;20746;-59
2023/06/26 10:59:16;;;;;;;27.70;24.80;;;;;;;-141.02;80.12;94222.50;5136479;27;20280;-60
2023/06/26 11:01:43;;;;;;;27.48;24.58;;;;;;;-141.02;80.82;94222.50;5136397;27;20658;-60
2023/06/26 11:04:11;;;;;;;27.17;24.27;;;;;;;-141.02;81.50;95719.53;5136710;27;20225;-60
2023/06/26 11:06:40;;;;;;;28.00;25.10;;;;;;;-141.02;79.59;94721.44;5136501;27;20189;-60
2023/06/26 11:09:13;;;;;;;28.08;25.17;;;;;;;-141.02;78.60;94471.97;5135997;27;20246;-60
2023/06/26 11:12:05;;;;;;;29.10;26.10;;;;;;;-141.02;76.33;93474.22;5136444;27;20185;-60
2023/06/26 11:14:33;;;;;;;26.48;23.67;;;;;;;-141.02;80.95;93973.06;5136516;27;20263;-59
2023/06/26 11:17:03;;;;;;;26.00;23.20;;;;;;;-141.02;78.87;93224.84;5136409;27;20195;-65
2023/06/26 11:19:31;;;;;;;26.33;22.67;;;;;;;-141.02;79.66;93224.84;5136093;27;20275;-60
2023/06/26 11:22:05;;;;;;;25.92;22.88;;;;;;;-141.02;80.46;92476.78;5135940;27;20234;-60
2023/06/26 11:24:33;;;;;;;26.42;22.50;;;;;;;-141.02;79.43;91978.16;5135977;27;20283;-60
2023/06/26 11:27:03;;;;;;;24.95;21.63;;;;;;;-141.02;80.92;91978.16;5136683;27;20241;-59
2023/06/26 11:41:24;;;;;;;19.90;18.50;;;;;;;-141.02;100.00;92975.47;5151617;27;20554;-60
2023/06/26 11:43:52;;;;;;;27.98;26.48;;;;;;;-141.02;100.00;94970.94;5150974;27;20200;-61
2023/06/26 11:46:23;;;;;;;26.63;25.23;;;;;;;-141.02;100.00;95470.00;5151097;27;20192;-61